Time;durP1;ratioP1;P1;durP2;ratioP2;P2;SDS_P1;SDS_P2;PMS_P1;PMS_P2;Temp;Humidity;BMP_temperature;BMP_pressure;BME280_temperature;BME280_humidity;BME280_pressure;Samples;Min_cycle;Max_cycle;Signal;HPM_P1;HPM_P2
2022/01/13 00:02:11;;;;;;;;;27.75;24.50;;;;;4.65;76.66;103798.94;4976354;28;45367;-73
2022/01/13 00:04:36;;;;;;;;;26.25;21.50;;;;;4.76;76.78;103823.56;4974634;28;46658;-73
2022/01/13 00:07:02;;;;;;;;;33.50;23.50;;;;;4.72;76.37;103816.16;4974500;28;45331;-73
2022/01/13 00:09:28;;;;;;;;;27.50;22.00;;;;;4.75;77.56;103826.03;4980017;28;45318;-73
2022/01/13 00:11:55;;;;;;;;;30.25;24.50;;;;;4.67;76.56;103806.94;4977218;28;45443;-72
2022/01/13 00:14:25;;;;;;;;;29.75;24.75;;;;;4.58;76.27;103795.56;4975307;28;46372;-73
2022/01/13 00:19:49;;;;;;;;;27.75;23.25;;;;;4.65;77.72;103826.81;4980174;28;45352;-73
2022/01/13 00:25:01;;;;;;;;;32.25;24.50;;;;;4.75;77.05;103829.56;4979763;28;46126;-74
2022/01/13 00:27:29;;;;;;;;;35.25;20.50;;;;;4.67;76.66;103814.78;4977838;28;45470;-73
2022/01/13 00:29:56;;;;;;;;;31.75;25.25;;;;;4.61;77.01;103806.34;4979857;28;45440;-73
2022/01/13 00:32:25;;;;;;;;;29.75;20.00;;;;;4.66;77.68;103819.13;4973701;28;45499;-73
2022/01/13 00:34:50;;;;;;;;;30.50;23.25;;;;;4.68;77.56;103820.19;4979928;28;45435;-73
2022/01/13 00:37:15;;;;;;;;;24.00;19.00;;;;;4.59;76.85;103805.28;4974567;28;45411;-72
2022/01/13 00:39:41;;;;;;;;;27.25;19.75;;;;;4.64;77.52;103827.59;4976401;28;45405;-73
2022/01/13 00:42:06;;;;;;;;;22.25;19.75;;;;;4.48;77.24;103797.31;4975628;28;45412;-73
2022/01/13 00:44:36;;;;;;;;;26.75;23.75;;;;;4.57;77.72;103809.47;4976135;28;45514;-72
2022/01/13 00:47:05;;;;;;;;;33.25;23.75;;;;;4.16;77.60;103743.50;4969156;28;45424;-73
2022/01/13 00:49:30;;;;;;;;;25.00;23.00;;;;;4.43;77.89;103792.41;4980869;28;45165;-72
2022/01/13 00:51:56;;;;;;;;;19.75;16.75;;;;;4.44;77.62;103794.22;4981287;28;45554;-73
2022/01/13 00:54:22;;;;;;;;;23.25;18.75;;;;;4.52;77.59;103801.16;4974431;28;46242;-73
2022/01/13 00:56:47;;;;;;;;;25.75;16.75;;;;;4.45;77.67;103797.03;4981235;28;45447;-73
2022/01/13 00:59:14;;;;;;;;;24.75;16.50;;;;;4.49;77.05;103807.00;4975690;28;45599;-73
2022/01/13 01:01:49;;;;;;;;;21.75;18.50;;;;;4.59;77.06;103819.28;4994284;28;47564;-73
2022/01/13 01:04:16;;;;;;;;;26.25;20.00;;;;;4.47;78.04;103797.16;4982022;28;46440;-73
2022/01/13 01:06:42;;;;;;;;;16.00;15.50;;;;;4.40;76.96;103784.25;4978675;28;45344;-73
2022/01/13 01:09:21;;;;;;;;;22.50;18.75;;;;;4.52;77.34;103811.63;4996202;28;45356;-72
2022/01/13 01:11:48;;;;;;;;;20.50;19.00;;;;;4.46;77.97;103797.94;4978113;28;45169;-73
2022/01/13 01:14:16;;;;;;;;;23.50;20.25;;;;;4.57;77.76;103827.81;4981499;28;45245;-73
2022/01/13 01:16:42;;;;;;;;;23.50;19.00;;;;;4.24;79.02;103758.25;4978492;28;45553;-72
2022/01/13 01:19:09;;;;;;;;;22.00;18.75;;;;;4.57;77.88;103819.94;4982781;28;45356;-73
2022/01/13 01:26:46;;;;;;;;;18.00;18.00;;;;;4.48;77.75;103798.97;4979662;28;45475;-73
2022/01/13 01:29:22;;;;;;;;;22.75;16.25;;;;;4.57;77.19;103809.47;4980534;28;45377;-73
2022/01/13 01:31:52;;;;;;;;;27.75;20.75;;;;;4.48;76.89;103785.88;4977804;28;45394;-73
2022/01/13 01:37:15;;;;;;;;;18.00;15.00;;;;;4.40;77.27;103773.78;4976305;28;45578;-73
2022/01/13 01:39:41;;;;;;;;;18.50;17.75;;;;;4.44;77.46;103787.28;4978399;28;45197;-73
2022/01/13 01:42:07;;;;;;;;;20.75;18.50;;;;;4.46;77.92;103793.63;4977475;28;45631;-72
2022/01/13 01:44:37;;;;;;;;;16.25;13.00;;;;;4.45;77.81;103797.03;4979046;28;46600;-72
2022/01/13 01:47:03;;;;;;;;;17.00;14.50;;;;;4.29;77.73;103777.03;4980336;28;45293;-72
2022/01/13 01:49:30;;;;;;;;;18.00;11.25;;;;;4.32;77.51;103780.88;4980309;28;45346;-72
2022/01/13 01:52:01;;;;;;;;;16.25;12.75;;;;;4.44;77.67;103803.00;4980201;28;46296;-72
2022/01/13 01:54:27;;;;;;;;;19.50;14.50;;;;;4.54;77.50;103823.19;4974172;28;45329;-73
2022/01/13 01:56:53;;;;;;;;;12.50;11.00;;;;;4.37;76.61;103795.34;4979261;28;45499;-73
2022/01/13 01:59:24;;;;;;;;;22.50;15.25;;;;;4.42;77.33;103808.88;4973266;28;45341;-73
2022/01/13 02:01:50;;;;;;;;;24.25;14.00;;;;;4.50;77.45;103828.88;4979047;28;45323;-73
2022/01/13 02:04:18;;;;;;;;;16.25;14.50;;;;;4.37;77.23;103812.72;4974460;28;45704;-73
2022/01/13 02:06:46;;;;;;;;;16.25;12.25;;;;;4.44;77.26;103816.09;4977974;28;45325;-73
2022/01/13 02:09:16;;;;;;;;;19.50;13.50;;;;;4.40;76.73;103823.53;4980648;28;45202;-73
2022/01/13 02:11:47;;;;;;;;;11.25;9.75;;;;;4.20;76.51;103797.97;4977851;28;45432;-73
2022/01/13 02:17:08;;;;;;;;;10.75;9.50;;;;;4.29;76.71;103839.88;4976304;28;45421;-73
2022/01/13 02:19:37;;;;;;;;;8.50;8.50;;;;;4.19;76.89;103832.81;4979122;28;45202;-73
2022/01/13 02:22:03;;;;;;;;;10.50;9.75;;;;;4.17;76.95;103832.66;4977164;28;45484;-73
2022/01/13 02:24:29;;;;;;;;;14.75;10.50;;;;;4.03;76.76;103814.63;4978896;28;47127;-73
2022/01/13 02:26:55;;;;;;;;;13.25;12.00;;;;;4.14;77.54;103841.88;4975347;28;45381;-73
2022/01/13 02:29:21;;;;;;;;;14.50;13.00;;;;;4.07;78.38;103839.44;4980143;28;45287;-73
2022/01/13 02:31:46;;;;;;;;;10.50;9.50;;;;;3.99;78.03;103830.81;4977057;28;45347;-73
2022/01/13 02:34:12;;;;;;;;;18.25;14.25;;;;;3.95;76.84;103819.13;4980115;28;45246;-73
2022/01/13 02:36:38;;;;;;;;;17.50;11.25;;;;;3.93;77.05;103804.06;4977849;28;45430;-73
2022/01/13 02:39:04;;;;;;;;;11.00;10.00;;;;;3.87;77.42;103799.13;4975925;28;45337;-72
2022/01/13 02:41:30;;;;;;;;;16.75;13.75;;;;;4.03;77.85;103817.25;4978972;28;45562;-73
2022/01/13 02:43:58;;;;;;;;;14.25;10.50;;;;;3.99;77.92;103813.44;4976898;28;46293;-73
2022/01/13 02:46:33;;;;;;;;;14.00;12.75;;;;;4.04;77.95;103824.38;4979704;28;45279;-72
2022/01/13 02:49:00;;;;;;;;;17.00;14.00;;;;;3.95;78.36;103813.91;4979773;28;45365;-73
2022/01/13 02:51:27;;;;;;;;;14.75;13.25;;;;;3.92;77.83;103804.81;4979557;28;46048;-73
2022/01/13 02:53:53;;;;;;;;;17.25;13.50;;;;;3.90;78.06;103793.28;4979481;28;47296;-73
2022/01/13 02:56:18;;;;;;;;;18.25;13.25;;;;;4.02;77.52;103826.81;4979382;28;45247;-72
2022/01/13 02:58:45;;;;;;;;;16.75;12.25;;;;;3.96;78.06;103812.22;4972207;28;45380;-73
2022/01/13 03:01:11;;;;;;;;;20.50;11.50;;;;;4.06;77.28;103827.09;4969249;28;45275;-73
2022/01/13 03:03:38;;;;;;;;;20.00;15.50;;;;;4.02;77.94;103815.44;4972429;28;45338;-73
2022/01/13 03:06:15;;;;;;;;;18.25;16.25;;;;;4.06;78.23;103821.88;4980090;28;45393;-73
2022/01/13 03:08:46;;;;;;;;;22.00;15.50;;;;;4.07;78.32;103828.97;4975389;28;45269;-72
2022/01/13 03:11:12;;;;;;;;;13.75;13.00;;;;;3.75;77.46;103756.97;4977901;28;45600;-73
2022/01/13 03:13:38;;;;;;;;;21.75;14.75;;;;;4.10;77.96;103826.66;4976527;28;45514;-74
2022/01/13 03:16:08;;;;;;;;;18.50;13.25;;;;;4.09;78.06;103822.19;4979966;28;45358;-73
2022/01/13 03:18:34;;;;;;;;;14.75;13.25;;;;;3.97;77.83;103803.56;4991454;28;45234;-72
2022/01/13 03:21:00;;;;;;;;;19.00;15.00;;;;;4.05;78.40;103813.09;4980062;28;45488;-73
2022/01/13 03:23:25;;;;;;;;;15.50;13.50;;;;;4.04;78.15;103803.41;4975035;28;45326;-73
2022/01/13 03:25:51;;;;;;;;;17.75;16.00;;;;;4.08;77.78;103810.78;4980376;28;44693;-72
2022/01/13 03:28:28;;;;;;;;;20.25;18.00;;;;;4.13;78.29;103814.78;4974186;28;45456;-72
2022/01/13 03:30:53;;;;;;;;;21.75;18.25;;;;;4.07;78.60;103803.72;4980720;28;45608;-73
2022/01/13 03:33:19;;;;;;;;;19.25;15.50;;;;;4.01;77.46;103790.03;4977636;28;48019;-72
2022/01/13 03:35:44;;;;;;;;;19.50;15.00;;;;;4.08;78.20;103804.63;4980456;28;45287;-73
2022/01/13 03:38:10;;;;;;;;;21.00;15.00;;;;;4.02;78.13;103800.63;4976003;28;45291;-72
2022/01/13 03:40:36;;;;;;;;;19.00;16.25;;;;;4.04;77.90;103799.09;4980241;28;45329;-72
2022/01/13 03:43:02;;;;;;;;;20.75;13.25;;;;;4.02;78.67;103800.63;4975313;28;47174;-73
2022/01/13 03:45:28;;;;;;;;;20.25;15.50;;;;;4.08;78.37;103809.88;4979148;28;45299;-73
2022/01/13 03:47:54;;;;;;;;;19.00;16.25;;;;;3.98;78.26;103795.88;4975495;28;45231;-72
2022/01/13 03:50:20;;;;;;;;;14.75;14.75;;;;;3.95;78.53;103792.97;4977789;28;45744;-73
2022/01/13 03:53:27;;;;;;;;;17.00;13.00;;;;;4.06;77.82;103807.09;4972318;28;45939;-73
2022/01/13 03:56:45;;;;;;;;;19.00;15.00;;;;;4.12;78.05;103814.66;4972794;28;46079;-73
2022/01/13 03:59:33;;;;;;;;;18.25;12.25;;;;;4.06;77.94;103812.31;4979061;28;45354;-73
2022/01/13 04:02:00;;;;;;;;;15.50;13.50;;;;;4.04;78.19;103811.28;4977114;28;45665;-74
2022/01/13 04:04:31;;;;;;;;;40.75;33.50;;;;;3.95;77.37;103800.81;4995337;28;47269;-73
2022/01/13 04:07:04;;;;;;;;;68.00;51.75;;;;;3.85;77.90;103799.75;4977515;28;45230;-73
2022/01/13 04:09:32;;;;;;;;;301.00;254.75;;;;;3.96;78.11;103826.22;4975797;28;45174;-73
2022/01/13 04:12:01;;;;;;;;;19.25;16.75;;;;;3.89;77.99;103813.25;4974213;28;45223;-72
2022/01/13 04:14:36;;;;;;;;;84.00;62.67;;;;;3.90;78.01;103829.91;4979750;28;46229;-73
2022/01/13 04:17:02;;;;;;;;;14.00;14.00;;;;;3.70;78.13;103807.91;4978209;28;45365;-72
2022/01/13 04:19:27;;;;;;;;;18.75;17.50;;;;;3.74;77.72;103815.28;4980199;28;45255;-73
2022/01/13 04:21:53;;;;;;;;;40.25;29.25;;;;;3.77;77.87;103820.81;4974764;28;45498;-73
2022/01/13 04:24:18;;;;;;;;;72.25;53.50;;;;;3.83;77.99;103822.22;4978643;28;45469;-73
2022/01/13 04:26:44;;;;;;;;;45.00;33.75;;;;;3.76;77.93;103805.91;4976121;28;45427;-72
2022/01/13 04:31:41;;;;;;;;;23.75;21.50;;;;;3.78;77.73;103806.03;4972448;28;45310;-73
2022/01/13 04:34:07;;;;;;;;;64.50;50.75;;;;;3.72;77.59;103797.59;4973119;28;45345;-72
2022/01/13 04:36:33;;;;;;;;;27.00;25.25;;;;;3.73;77.90;103802.97;4976616;28;45289;-72
2022/01/13 04:38:59;;;;;;;;;66.25;53.50;;;;;3.68;77.94;103801.59;4977529;28;45380;-73
2022/01/13 04:41:39;;;;;;;;;109.00;86.33;;;;;3.69;77.65;103781.59;4969508;28;46519;-73
2022/01/13 04:44:10;;;;;;;;;48.50;35.25;;;;;3.62;78.25;103785.28;4977320;28;45302;-73
2022/01/13 04:46:37;;;;;;;;;63.50;48.25;;;;;3.78;77.81;103807.00;4977143;28;45160;-73
2022/01/13 04:49:04;;;;;;;;;87.00;63.00;;;;;3.58;78.27;103777.88;4978844;28;45310;-72
2022/01/13 04:51:30;;;;;;;;;65.33;52.67;;;;;3.70;77.67;103792.22;4977795;28;45472;-72
2022/01/13 04:53:56;;;;;;;;;32.00;28.00;;;;;3.72;77.99;103808.03;4971254;28;45239;-73
2022/01/13 04:59:07;;;;;;;;;67.00;51.25;;;;;3.68;78.27;103805.91;4977000;28;45321;-72
2022/01/13 05:01:33;;;;;;;;;84.00;64.67;;;;;3.73;78.10;103809.91;4977525;28;46263;-72
2022/01/13 05:03:59;;;;;;;;;155.25;136.25;;;;;3.67;78.35;103810.22;4974613;28;47353;-72
2022/01/13 05:06:24;;;;;;;;;137.00;118.75;;;;;3.67;78.72;103798.81;4976354;28;45322;-72
2022/01/13 05:08:50;;;;;;;;;25.00;18.75;;;;;3.74;77.62;103817.91;4978272;28;45352;-73
2022/01/13 05:11:16;;;;;;;;;43.75;34.50;;;;;3.70;78.50;103807.91;4977318;28;45339;-72
2022/01/13 05:13:42;;;;;;;;;25.25;19.75;;;;;3.57;77.95;103776.97;4973795;28;45262;-72
2022/01/13 05:16:15;;;;;;;;;74.00;59.00;;;;;3.72;77.72;103800.19;4963366;28;45566;-72
2022/01/13 05:18:53;;;;;;;;;21.75;18.00;;;;;3.71;77.88;103806.22;4974285;28;45311;-72
2022/01/13 05:21:25;;;;;;;;;29.50;22.50;;;;;3.72;78.20;103810.66;4977095;28;45250;-72
2022/01/13 05:23:52;;;;;;;;;82.33;62.33;;;;;3.59;78.33;103793.75;4974648;28;45613;-72
2022/01/13 05:26:22;;;;;;;;;32.50;26.25;;;;;3.57;78.17;103794.34;4974512;28;45333;-73
2022/01/13 05:28:47;;;;;;;;;22.75;15.75;;;;;3.59;78.59;103795.44;4974572;28;45341;-72
2022/01/13 05:31:13;;;;;;;;;15.50;14.00;;;;;3.75;78.01;103825.00;4977081;28;45325;-72
2022/01/13 05:33:38;;;;;;;;;66.25;52.25;;;;;3.57;78.05;103789.13;4974429;28;45521;-72
2022/01/13 05:36:04;;;;;;;;;51.50;43.75;;;;;3.54;77.79;103780.97;4963322;28;45271;-73
2022/01/13 05:38:30;;;;;;;;;33.50;30.50;;;;;3.63;77.44;103810.66;4974486;28;45333;-72
2022/01/13 05:40:58;;;;;;;;;131.50;121.75;;;;;3.61;77.47;103804.34;4968955;28;45234;-73
2022/01/13 05:43:23;;;;;;;;;80.00;62.33;;;;;3.49;77.81;103784.81;4976559;28;45662;-72
2022/01/13 05:45:49;;;;;;;;;16.75;16.00;;;;;3.45;78.51;103785.28;4974866;28;44663;-72
2022/01/13 05:48:14;;;;;;;;;14.00;13.00;;;;;3.53;78.20;103797.44;4976795;28;45223;-72
2022/01/13 05:50:39;;;;;;;;;22.75;18.25;;;;;3.46;78.39;103787.13;4982126;28;45429;-72
2022/01/13 05:53:05;;;;;;;;;17.50;16.75;;;;;3.50;78.08;103799.72;4979994;28;46177;-72
2022/01/13 05:55:31;;;;;;;;;19.00;17.25;;;;;3.51;78.30;103805.13;4981617;28;45315;-73
2022/01/13 05:57:57;;;;;;;;;15.75;13.50;;;;;3.45;78.39;103786.19;4972808;28;45277;-72
2022/01/13 06:00:23;;;;;;;;;17.25;13.25;;;;;3.45;78.43;103786.19;4981558;28;45346;-72
2022/01/13 06:02:49;;;;;;;;;21.50;16.00;;;;;3.26;78.19;103759.88;4980020;28;47318;-73
2022/01/13 06:05:15;;;;;;;;;17.75;15.00;;;;;3.49;77.50;103801.41;4980466;28;45429;-73
2022/01/13 06:07:41;;;;;;;;;16.75;15.75;;;;;3.42;77.80;103783.28;4973615;28;45407;-73
2022/01/13 06:10:09;;;;;;;;;23.25;22.00;;;;;3.51;77.79;103802.50;4981488;28;45405;-73
2022/01/13 06:12:37;;;;;;;;;23.50;21.00;;;;;3.44;78.38;103788.66;4975660;28;46328;-73
2022/01/13 06:15:08;;;;;;;;;22.75;18.00;;;;;3.56;78.52;103808.22;4981966;28;45366;-73
2022/01/13 06:17:35;;;;;;;;;36.75;24.50;;;;;3.56;78.14;103810.84;4975823;28;45277;-73
2022/01/13 06:20:02;;;;;;;;;19.50;17.50;;;;;3.39;78.51;103790.81;4980652;28;47239;-72
2022/01/13 06:22:28;;;;;;;;;24.75;19.50;;;;;3.42;78.98;103801.59;4975502;28;45741;-73
2022/01/13 06:24:53;;;;;;;;;15.25;13.50;;;;;3.43;79.16;103800.81;4979995;28;45330;-72
2022/01/13 06:27:21;;;;;;;;;19.50;18.50;;;;;3.50;77.81;103804.94;4975593;28;45334;-72
2022/01/13 06:29:47;;;;;;;;;16.00;14.50;;;;;3.50;79.13;103813.75;4981247;28;45269;-73
2022/01/13 06:32:12;;;;;;;;;19.25;16.75;;;;;3.56;77.85;103816.97;4979393;28;47283;-72
2022/01/13 06:34:37;;;;;;;;;21.75;12.75;;;;;3.50;78.36;103804.94;4992639;28;46125;-71
2022/01/13 06:37:03;;;;;;;;;18.00;16.50;;;;;3.31;78.59;103776.97;4977757;28;45413;-71
2022/01/13 06:39:28;;;;;;;;;25.75;21.75;;;;;3.39;77.90;103793.44;4979609;28;45471;-72
2022/01/13 06:41:53;;;;;;;;;21.75;18.75;;;;;3.45;78.07;103791.44;4977493;28;45446;-71
2022/01/13 06:44:19;;;;;;;;;33.75;29.00;;;;;3.52;78.60;103806.97;4979057;28;45218;-71
2022/01/13 06:46:45;;;;;;;;;35.50;30.25;;;;;3.49;78.62;103805.72;4977603;28;45425;-72
2022/01/13 06:49:10;;;;;;;;;28.25;26.50;;;;;3.54;78.19;103800.19;4976920;28;45496;-71
2022/01/13 06:51:35;;;;;;;;;27.25;19.50;;;;;3.56;78.16;103810.84;4978753;28;45441;-71
2022/01/13 06:54:01;;;;;;;;;22.00;17.50;;;;;3.51;78.05;103792.06;4977742;28;45374;-71
2022/01/13 06:56:26;;;;;;;;;18.25;14.50;;;;;3.59;78.55;103809.44;4978835;28;45227;-71
2022/01/13 06:58:53;;;;;;;;;30.00;24.75;;;;;3.58;78.18;103809.28;4976792;28;46112;-71
2022/01/13 07:01:20;;;;;;;;;32.75;22.50;;;;;3.46;78.98;103787.13;4978900;28;46507;-70
2022/01/13 07:03:46;;;;;;;;;52.00;41.75;;;;;3.62;78.01;103816.69;4975772;28;45353;-70
2022/01/13 07:06:11;;;;;;;;;33.75;26.00;;;;;3.58;78.93;103802.38;4978951;28;45294;-70
2022/01/13 07:08:36;;;;;;;;;51.75;41.75;;;;;3.67;78.02;103818.06;4977372;28;46204;-70
2022/01/13 07:11:03;;;;;;;;;31.25;25.75;;;;;3.55;78.52;103793.28;4978111;28;48201;-70
2022/01/13 07:13:32;;;;;;;;;24.75;18.75;;;;;3.50;78.03;103778.81;4978365;28;44833;-70
2022/01/13 07:16:00;;;;;;;;;21.25;18.00;;;;;3.67;78.54;103815.44;4977596;28;45328;-70
2022/01/13 07:18:29;;;;;;;;;23.00;22.00;;;;;3.69;77.76;103824.34;4977030;28;46195;-70
2022/01/13 07:20:56;;;;;;;;;55.00;39.50;;;;;3.58;78.06;103811.88;4979897;28;46411;-70
2022/01/13 07:23:21;;;;;;;;;34.75;29.25;;;;;3.64;77.92;103827.28;4973843;28;44823;-70
2022/01/13 07:25:47;;;;;;;;;39.50;34.00;;;;;3.55;78.42;103814.19;4980125;28;45274;-70
2022/01/13 07:28:12;;;;;;;;;28.50;22.75;;;;;3.59;78.23;103818.97;4976447;28;45388;-70
2022/01/13 07:30:37;;;;;;;;;21.50;16.25;;;;;3.56;78.04;103805.59;4979698;28;45387;-69
2022/01/13 07:33:03;;;;;;;;;26.00;17.25;;;;;3.45;78.43;103780.97;4974844;28;45311;-70
2022/01/13 07:35:28;;;;;;;;;21.00;18.00;;;;;3.53;77.91;103819.28;4977495;28;45255;-70
2022/01/13 07:37:54;;;;;;;;;31.50;28.50;;;;;3.50;77.89;103799.72;4976931;28;45480;-70
2022/01/13 07:40:20;;;;;;;;;24.00;21.50;;;;;3.46;78.17;103803.72;4978497;28;45811;-70
2022/01/13 07:42:46;;;;;;;;;22.25;19.00;;;;;3.55;79.04;103817.72;4976108;28;45460;-70
2022/01/13 07:45:15;;;;;;;;;28.75;22.25;;;;;3.61;78.20;103812.19;4977585;28;45537;-70
2022/01/13 07:47:41;;;;;;;;;18.00;14.75;;;;;3.61;78.11;103817.41;4974314;28;45613;-70
2022/01/13 07:50:08;;;;;;;;;32.25;29.50;;;;;3.65;78.00;103832.69;4979335;28;45344;-69
2022/01/13 07:52:34;;;;;;;;;27.75;22.75;;;;;3.59;78.10;103813.75;4972769;28;45563;-70
2022/01/13 07:54:59;;;;;;;;;32.00;23.00;;;;;3.63;77.75;103802.81;4976878;28;45262;-70
2022/01/13 07:57:25;;;;;;;;;54.75;42.50;;;;;3.66;78.42;103810.06;4977068;28;45482;-70
2022/01/13 07:59:52;;;;;;;;;25.25;22.75;;;;;3.73;77.83;103820.38;4979589;28;45579;-69
2022/01/13 08:02:18;;;;;;;;;60.33;47.00;;;;;3.57;77.46;103783.91;4974186;28;45314;-70
2022/01/13 08:04:43;;;;;;;;;24.25;21.75;;;;;3.74;78.31;103814.38;4978671;28;45317;-70
2022/01/13 08:07:09;;;;;;;;;88.67;67.67;;;;;3.71;78.28;103808.81;4977725;28;45939;-72
2022/01/13 08:09:34;;;;;;;;;38.75;34.25;;;;;3.72;78.17;103813.28;4979680;28;45403;-72
2022/01/13 08:11:59;;;;;;;;;41.25;34.75;;;;;3.70;77.86;103794.84;4974712;28;45234;-71
2022/01/13 08:14:25;;;;;;;;;77.67;60.33;;;;;3.79;77.92;103802.66;4979316;28;45359;-70
2022/01/13 08:16:55;;;;;;;;;24.25;22.00;;;;;3.82;77.78;103813.44;4977395;28;46255;-70
2022/01/13 08:22:04;;;;;;;;;24.00;23.25;;;;;3.70;78.14;103797.44;4973800;28;45342;-70
2022/01/13 08:24:30;;;;;;;;;27.75;22.50;;;;;3.72;78.14;103800.19;4979816;28;45222;-70
2022/01/13 08:26:55;;;;;;;;;37.75;33.00;;;;;3.77;78.00;103807.72;4975028;28;45243;-70
2022/01/13 08:29:20;;;;;;;;;28.75;22.00;;;;;3.66;77.79;103776.03;4976933;28;46252;-71
2022/01/13 08:31:46;;;;;;;;;21.25;15.75;;;;;3.83;78.09;103801.28;4970967;28;45437;-70
2022/01/13 08:34:13;;;;;;;;;76.67;59.00;;;;;3.79;77.75;103795.75;4974074;28;45261;-70
2022/01/13 08:36:39;;;;;;;;;42.75;38.00;;;;;3.76;78.08;103792.81;4975693;28;45988;-70
2022/01/13 08:39:04;;;;;;;;;22.50;17.25;;;;;3.79;77.63;103794.81;4974150;28;45529;-70
2022/01/13 08:41:29;;;;;;;;;32.25;25.50;;;;;3.71;77.89;103780.06;4978207;28;46991;-71
2022/01/13 08:43:55;;;;;;;;;24.00;19.25;;;;;3.85;77.64;103816.38;4978263;28;45448;-71
2022/01/13 08:46:21;;;;;;;;;31.00;18.25;;;;;3.78;78.20;103798.19;4976775;28;45480;-71
2022/01/13 08:48:47;;;;;;;;;21.50;19.25;;;;;3.74;77.67;103786.50;4976197;28;45337;-70
2022/01/13 08:51:12;;;;;;;;;22.75;18.50;;;;;3.72;77.99;103779.28;4977214;28;45347;-70
2022/01/13 08:53:38;;;;;;;;;27.00;20.25;;;;;3.79;77.73;103789.59;4985623;28;45890;-70
2022/01/13 08:56:04;;;;;;;;;19.00;18.00;;;;;3.88;77.93;103806.19;4977538;28;46223;-70
2022/01/13 08:58:30;;;;;;;;;49.75;41.25;;;;;3.89;77.96;103812.34;4971353;28;45259;-71
2022/01/13 09:00:56;;;;;;;;;22.00;19.00;;;;;3.75;77.61;103788.38;4979780;28;45234;-70
2022/01/13 09:03:22;;;;;;;;;21.50;20.25;;;;;3.86;77.43;103820.81;4973813;28;45321;-70
2022/01/13 09:05:48;;;;;;;;;30.50;24.25;;;;;3.66;77.65;103773.44;4979712;28;44776;-70
2022/01/13 09:08:13;;;;;;;;;29.25;20.00;;;;;3.85;78.13;103820.69;4972984;28;45349;-72
2022/01/13 09:10:41;;;;;;;;;32.00;26.75;;;;;3.86;77.73;103815.59;4981596;28;45224;-72
2022/01/13 09:13:14;;;;;;;;;26.00;21.25;;;;;3.77;77.99;103815.59;4976686;28;45310;-72
2022/01/13 09:15:44;;;;;;;;;20.25;18.75;;;;;3.70;77.56;103797.44;4982846;28;45591;-72
2022/01/13 09:18:31;;;;;;;;;21.50;18.25;;;;;3.72;77.72;103801.13;4976587;28;45330;-72
2022/01/13 09:20:55;;;;;;;;;23.75;19.50;;;;;3.87;77.76;103811.31;4982478;28;45354;-72
2022/01/13 09:23:21;;;;;;;;;27.75;19.00;;;;;3.97;78.10;103841.13;4976637;28;45960;-72
2022/01/13 09:25:46;;;;;;;;;24.75;17.25;;;;;3.94;77.50;103827.75;4997509;28;46295;-72
2022/01/13 09:28:12;;;;;;;;;20.25;18.25;;;;;3.89;77.27;103820.19;4975886;28;45344;-72
2022/01/13 09:30:39;;;;;;;;;18.50;18.25;;;;;3.99;77.62;103847.44;4978728;28;45209;-72
2022/01/13 09:33:05;;;;;;;;;26.00;19.00;;;;;3.91;77.22;103834.38;4978033;28;45389;-71
2022/01/13 09:35:31;;;;;;;;;17.00;15.00;;;;;3.83;77.29;103814.34;4979175;28;45921;-72
2022/01/13 09:37:56;;;;;;;;;18.25;17.25;;;;;3.97;77.43;103842.81;4977259;28;45434;-72
2022/01/13 09:40:21;;;;;;;;;22.50;17.00;;;;;3.90;77.21;103832.53;4978999;28;45429;-72
2022/01/13 09:42:48;;;;;;;;;22.75;18.50;;;;;4.04;77.14;103846.22;4979711;28;45250;-72
2022/01/13 09:45:16;;;;;;;;;19.00;17.75;;;;;4.10;76.96;103863.31;4981102;28;45543;-72
2022/01/13 09:47:43;;;;;;;;;31.25;22.25;;;;;4.04;76.78;103864.53;4973626;28;46558;-72
2022/01/13 09:50:12;;;;;;;;;30.75;26.75;;;;;3.86;77.32;103833.91;4978880;28;45301;-71
2022/01/13 09:52:38;;;;;;;;;31.00;23.75;;;;;3.97;77.42;103848.97;4976264;28;45330;-71
2022/01/13 09:55:05;;;;;;;;;24.25;19.00;;;;;3.93;77.29;103836.38;4978762;28;45397;-72
2022/01/13 09:57:30;;;;;;;;;27.00;21.75;;;;;4.03;76.98;103854.84;4976111;28;46445;-72
2022/01/13 09:59:58;;;;;;;;;24.75;19.25;;;;;3.96;77.28;103846.22;4981999;28;45277;-71
2022/01/13 10:02:24;;;;;;;;;29.75;22.25;;;;;3.81;76.86;103830.84;4977041;28;45735;-72
2022/01/13 10:04:55;;;;;;;;;21.50;18.00;;;;;3.94;77.09;103855.59;4979163;28;45421;-71
2022/01/13 10:07:41;;;;;;;;;19.25;19.00;;;;;3.95;77.15;103849.59;4976019;28;45497;-71
2022/01/13 10:10:14;;;;;;;;;23.00;19.25;;;;;3.85;76.42;103844.22;4973022;28;45321;-72
2022/01/13 10:12:45;;;;;;;;;29.25;21.75;;;;;3.92;77.15;103871.19;4975688;28;45448;-72
2022/01/13 10:17:57;;;;;;;;;23.25;19.75;;;;;3.80;76.86;103848.97;4975623;28;45407;-70
2022/01/13 10:20:23;;;;;;;;;23.50;19.50;;;;;3.85;76.89;103844.22;4981526;28;45239;-71
2022/01/13 10:22:49;;;;;;;;;22.25;18.25;;;;;3.84;76.94;103850.22;4975866;28;45414;-71
2022/01/13 10:25:29;;;;;;;;;17.50;9.25;;;;;3.83;76.59;103840.53;4981452;28;45471;-71
2022/01/13 10:27:55;;;;;;;;;24.25;21.25;;;;;3.91;76.76;103853.59;4974805;28;45548;-71
2022/01/13 10:30:26;;;;;;;;;22.25;19.00;;;;;3.95;76.56;103865.28;4992139;28;45446;-71
2022/01/13 10:32:53;;;;;;;;;17.50;13.25;;;;;3.74;76.88;103837.91;4977233;28;44764;-71
2022/01/13 10:35:21;;;;;;;;;25.50;23.00;;;;;3.83;76.54;103841.44;4978650;28;45211;-71
2022/01/13 10:37:53;;;;;;;;;22.50;20.25;;;;;3.96;76.80;103859.31;4976721;28;46503;-71
2022/01/13 10:40:25;;;;;;;;;22.00;20.50;;;;;3.93;76.47;103854.69;4977254;28;46031;-71
2022/01/13 10:45:50;;;;;;;;;28.00;21.50;;;;;3.94;76.92;103843.44;4980780;28;45416;-71
2022/01/13 10:48:24;;;;;;;;;28.25;22.75;;;;;4.02;76.50;103855.59;4970257;28;45636;-71
2022/01/13 10:51:02;;;;;;;;;18.25;18.25;;;;;3.88;76.87;103842.84;4981758;28;45243;-71
2022/01/13 10:53:34;;;;;;;;;25.00;19.50;;;;;4.00;76.65;103856.22;4973474;28;45310;-71
2022/01/13 10:56:09;;;;;;;;;25.25;22.50;;;;;3.91;76.66;103831.75;4981284;28;45366;-71
2022/01/13 10:58:38;;;;;;;;;23.50;20.25;;;;;3.98;76.61;103837.75;4976268;28;47780;-71
2022/01/13 11:01:05;;;;;;;;;25.75;22.25;;;;;3.95;76.79;103841.75;4974092;28;45342;-72
2022/01/13 11:03:34;;;;;;;;;23.50;19.00;;;;;4.10;76.64;103855.47;4979884;28;44745;-72
2022/01/13 11:06:01;;;;;;;;;30.75;19.50;;;;;4.03;76.37;103836.53;4967899;28;45524;-72
2022/01/13 11:08:27;;;;;;;;;24.25;22.75;;;;;4.13;76.56;103846.22;4978690;28;47717;-72
2022/01/13 11:10:56;;;;;;;;;30.50;23.75;;;;;4.10;76.26;103834.50;4980548;28;45274;-72
2022/01/13 11:13:24;;;;;;;;;27.25;24.50;;;;;4.01;76.36;103810.97;4974320;28;45416;-72
2022/01/13 11:15:53;;;;;;;;;34.00;22.50;;;;;4.11;76.09;103818.03;4980894;28;45290;-72
2022/01/13 11:18:20;;;;;;;;;27.75;24.25;;;;;4.22;76.41;103844.50;4974456;28;45306;-72
2022/01/13 11:20:49;;;;;;;;;29.50;27.50;;;;;4.18;76.60;103820.50;4980453;28;45354;-72
2022/01/13 11:23:19;;;;;;;;;33.50;23.75;;;;;4.31;76.17;103844.47;4975206;28;45261;-72
2022/01/13 11:25:49;;;;;;;;;35.00;29.50;;;;;4.25;75.94;103823.84;4995307;28;45512;-72
2022/01/13 11:28:16;;;;;;;;;38.25;24.25;;;;;4.22;76.12;103806.91;4973476;28;45267;-72
2022/01/13 11:30:42;;;;;;;;;25.50;21.00;;;;;4.32;76.03;103829.72;4976464;28;45359;-72
2022/01/13 11:33:07;;;;;;;;;32.00;24.50;;;;;4.33;75.98;103824.59;4973462;28;45353;-72
2022/01/13 11:35:42;;;;;;;;;37.50;25.25;;;;;4.29;76.15;103818.94;4975766;28;45997;-72
2022/01/13 11:38:08;;;;;;;;;33.00;26.75;;;;;4.26;75.64;103812.63;4976844;28;47413;-72
2022/01/13 11:40:43;;;;;;;;;37.25;28.25;;;;;4.28;76.16;103801.38;4979088;28;45308;-72
2022/01/13 11:43:33;;;;;;;;;30.50;29.50;;;;;4.40;75.56;103813.06;4977822;28;45330;-72
2022/01/13 11:46:19;;;;;;;;;26.00;23.25;;;;;4.44;75.57;103807.34;4978502;28;46173;-71
2022/01/13 11:48:59;;;;;;;;;28.25;19.25;;;;;4.48;75.47;103799.94;4969079;28;46441;-70
2022/01/13 11:51:25;;;;;;;;;23.75;15.50;;;;;4.31;75.28;103773.78;4978532;28;45305;-73